createdAt,value
2022-10-01T00:03:02.919Z,92.75
2022-10-01T00:08:04.426Z,92.87
2022-10-01T00:13:06.611Z,92.22
2022-10-01T00:18:09.680Z,92.06
2022-10-01T00:23:12.583Z,92.85
2022-10-01T00:28:14.065Z,93.08
2022-10-01T00:33:15.559Z,92.13
2022-10-01T00:38:17.007Z,92.15
2022-10-01T00:43:31.707Z,90.71
2022-10-01T00:48:40.041Z,91.00
2022-10-01T00:53:43.742Z,92.21
2022-10-01T00:58:45.640Z,92.98
2022-10-01T01:03:47.667Z,92.75
2022-10-01T01:08:55.214Z,92.87
2022-10-01T01:14:10.882Z,92.92
2022-10-01T01:19:34.215Z,91.68
2022-10-01T01:24:57.592Z,91.20
2022-10-01T01:30:03.664Z,91.57
2022-10-01T01:35:10.099Z,91.57
2022-10-01T01:40:15.364Z,90.70
2022-10-01T01:45:25.953Z,91.17
2022-10-01T01:50:34.486Z,90.13
2022-10-01T01:55:37.111Z,91.62
2022-10-01T02:00:39.189Z,91.15
2022-10-01T02:06:04.829Z,90.91
2022-10-01T02:11:33.857Z,90.66
2022-10-01T02:17:01.992Z,90.37
2022-10-01T02:22:12.801Z,90.88
2022-10-01T02:27:23.570Z,90.31
2022-10-01T02:32:28.392Z,90.24
2022-10-01T02:37:30.162Z,91.70
2022-10-01T02:42:35.437Z,91.83
2022-10-01T02:47:43.594Z,91.48
2022-10-01T02:52:55.570Z,91.48
2022-10-01T02:57:58.091Z,91.82
2022-10-01T03:02:59.629Z,92.76
2022-10-01T03:08:01.523Z,92.12
2022-10-01T03:13:03.077Z,92.85
2022-10-01T03:18:04.492Z,93.08
2022-10-01T03:23:06.033Z,93.96
2022-10-01T03:28:07.493Z,94.53
2022-10-01T03:33:08.979Z,96.60
2022-10-01T03:38:10.484Z,98.45
2022-10-01T03:43:12.208Z,100.00
2022-10-01T03:48:13.948Z,100.00
2022-10-01T03:53:15.390Z,100.00
2022-10-01T03:58:18.889Z,100.00
2022-10-01T04:03:20.678Z,100.00
2022-10-01T04:08:24.551Z,100.00
2022-10-01T04:13:26.270Z,100.00
2022-10-01T04:18:28.032Z,100.00
2022-10-01T04:23:29.435Z,100.00
2022-10-01T04:28:31.685Z,100.00
2022-10-01T04:33:33.144Z,100.00
2022-10-01T04:38:34.964Z,100.00
2022-10-01T04:43:36.909Z,100.00
2022-10-01T04:48:38.327Z,100.00
2022-10-01T04:53:39.768Z,100.00
2022-10-01T04:58:41.225Z,100.00
2022-10-01T05:03:42.636Z,100.00
2022-10-01T05:08:44.135Z,100.00
2022-10-01T05:13:45.552Z,100.00
2022-10-01T05:18:46.971Z,100.00
2022-10-01T05:23:48.531Z,100.00
2022-10-01T05:28:51.097Z,100.00
2022-10-01T05:33:52.584Z,100.00
2022-10-01T05:38:54.156Z,100.00
2022-10-01T05:43:55.608Z,100.00
2022-10-01T05:48:57.013Z,100.00
2022-10-01T05:54:02.377Z,100.00
2022-10-01T05:59:04.506Z,100.00
2022-10-01T06:04:05.986Z,100.00
2022-10-01T06:09:07.488Z,100.00
2022-10-01T06:14:08.917Z,100.00
2022-10-01T06:19:10.494Z,100.00
2022-10-01T06:24:11.996Z,100.00
2022-10-01T06:29:13.476Z,100.00
2022-10-01T06:34:14.898Z,100.00
2022-10-01T06:39:17.054Z,100.00
2022-10-01T06:44:20.368Z,100.00
2022-10-01T06:49:22.676Z,100.00
2022-10-01T06:54:27.238Z,100.00
2022-10-01T06:59:28.632Z,100.00
2022-10-01T07:04:30.113Z,100.00
2022-10-01T07:09:31.548Z,100.00
2022-10-01T07:14:33.257Z,100.00
2022-10-01T07:19:34.685Z,100.00
2022-10-01T07:24:36.132Z,100.00
2022-10-01T07:29:37.576Z,100.00
2022-10-01T07:34:42.531Z,100.00
2022-10-01T07:39:44.104Z,100.00
2022-10-01T07:44:45.515Z,100.00
2022-10-01T07:49:46.929Z,100.00
2022-10-01T07:54:48.604Z,100.00
2022-10-01T07:59:54.883Z,100.00
2022-10-01T08:05:15.580Z,100.00
2022-10-01T08:10:19.092Z,100.00
2022-10-01T08:15:20.513Z,100.00
2022-10-01T08:20:22.023Z,100.00
2022-10-01T08:25:23.483Z,100.00
2022-10-01T08:30:25.405Z,100.00
2022-10-01T08:35:28.463Z,100.00
2022-10-01T08:40:33.879Z,100.00
2022-10-01T08:45:51.022Z,100.00
2022-10-01T08:50:57.486Z,100.00
2022-10-01T08:56:01.559Z,100.00
2022-10-01T09:01:03.292Z,100.00
2022-10-01T09:06:21.933Z,100.00
2022-10-01T09:11:58.617Z,100.00
2022-10-01T09:17:10.781Z,100.00
2022-10-01T09:22:27.785Z,100.00
2022-10-01T09:27:29.326Z,100.00
2022-10-01T09:32:38.589Z,100.00
2022-10-01T09:37:51.769Z,100.00
2022-10-01T09:42:53.328Z,100.00
2022-10-01T09:48:04.625Z,100.00
2022-10-01T09:53:13.637Z,100.00
2022-10-01T09:58:18.592Z,100.00
2022-10-01T10:03:31.884Z,100.00
2022-10-01T10:08:40.037Z,100.00
2022-10-01T10:13:50.156Z,100.00
2022-10-01T10:18:54.336Z,100.00
2022-10-01T10:23:59.263Z,100.00
2022-10-01T10:29:03.011Z,100.00
2022-10-01T10:34:18.444Z,100.00
2022-10-01T10:39:24.480Z,100.00
2022-10-01T10:44:31.923Z,90.47
2022-10-01T10:49:43.411Z,85.55
2022-10-01T10:54:48.229Z,86.87
2022-10-01T11:00:01.849Z,92.55
2022-10-01T11:05:20.341Z,99.46
2022-10-01T11:10:27.674Z,91.26
2022-10-01T11:15:41.997Z,82.96
2022-10-01T11:21:01.489Z,94.30
2022-10-01T11:26:11.941Z,97.15
2022-10-01T11:31:29.564Z,82.71
2022-10-01T11:36:42.675Z,89.80
2022-10-01T11:41:50.037Z,78.44
2022-10-01T11:47:08.599Z,64.37
2022-10-01T11:52:33.072Z,60.33
2022-10-01T11:57:53.120Z,62.95
2022-10-01T12:03:02.069Z,55.62
2022-10-01T12:08:14.791Z,52.67
2022-10-01T12:13:16.140Z,53.93
2022-10-01T12:18:20.481Z,50.20
2022-10-01T12:23:28.324Z,48.42
2022-10-01T12:29:00.387Z,49.67
2022-10-01T12:34:24.127Z,55.22
2022-10-01T12:39:40.928Z,57.16
2022-10-01T12:45:01.322Z,59.28
2022-10-01T12:50:24.633Z,61.45
2022-10-01T12:55:47.621Z,66.50
2022-10-01T13:01:03.401Z,62.31
2022-10-01T13:06:22.346Z,68.13
2022-10-01T13:11:53.173Z,72.91
2022-10-01T13:17:20.172Z,78.87
2022-10-01T13:22:41.275Z,79.59
2022-10-01T13:27:49.498Z,88.66
2022-10-01T13:33:00.756Z,96.52
2022-10-01T13:38:14.352Z,100.00
2022-10-01T13:43:18.750Z,100.00
2022-10-01T13:48:20.475Z,100.00
2022-10-01T13:53:25.413Z,98.77
2022-10-01T13:58:29.593Z,91.81
2022-10-01T14:03:49.802Z,93.40
2022-10-01T14:09:00.376Z,94.27
2022-10-01T14:14:30.424Z,89.44
2022-10-01T14:19:32.303Z,93.82
2022-10-01T14:24:48.872Z,93.90
2022-10-01T14:30:10.826Z,97.44
2022-10-01T14:35:36.832Z,98.82
2022-10-01T14:40:41.428Z,99.82
2022-10-01T14:46:03.087Z,100.00
2022-10-01T14:51:20.545Z,98.67
2022-10-01T14:56:22.794Z,98.42
2022-10-01T15:01:25.421Z,97.78
2022-10-01T15:06:29.650Z,99.49
2022-10-01T15:11:33.412Z,100.00
2022-10-01T15:16:36.623Z,100.00
2022-10-01T15:21:54.425Z,100.00
2022-10-01T15:26:57.881Z,100.00
2022-10-01T15:32:00.556Z,100.00
2022-10-01T15:37:03.698Z,100.00
2022-10-01T15:42:27.134Z,100.00
2022-10-01T15:47:39.317Z,100.00
2022-10-01T15:52:50.574Z,100.00
2022-10-01T15:57:58.314Z,100.00
2022-10-01T16:03:00.510Z,100.00
2022-10-01T16:08:02.270Z,100.00
2022-10-01T16:13:36.557Z,100.00
2022-10-01T16:18:38.605Z,100.00
2022-10-01T16:23:40.141Z,100.00
2022-10-01T16:28:42.366Z,100.00
2022-10-01T16:33:43.980Z,100.00
2022-10-01T16:38:46.295Z,100.00
2022-10-01T16:43:49.897Z,100.00
2022-10-01T16:48:51.963Z,100.00
2022-10-01T16:53:55.050Z,100.00
2022-10-01T16:58:56.482Z,100.00
2022-10-01T17:03:57.893Z,100.00
2022-10-01T17:08:59.970Z,100.00
2022-10-01T17:14:08.201Z,100.00
2022-10-01T17:19:10.723Z,100.00
2022-10-01T17:24:12.853Z,100.00
2022-10-01T17:29:14.589Z,100.00
2022-10-01T17:34:16.149Z,100.00
2022-10-01T17:39:17.574Z,100.00
2022-10-01T17:44:19.130Z,100.00
2022-10-01T17:49:21.601Z,100.00
2022-10-01T17:54:23.285Z,100.00
2022-10-01T17:59:25.481Z,100.00
2022-10-01T18:04:26.932Z,100.00
2022-10-01T18:09:28.341Z,100.00
2022-10-01T18:14:30.160Z,100.00
2022-10-01T18:19:52.929Z,100.00
2022-10-01T18:24:53.178Z,100.00
2022-10-01T18:29:54.615Z,100.00
2022-10-01T18:34:58.858Z,100.00
2022-10-01T18:40:07.033Z,100.00
2022-10-01T18:45:43.395Z,100.00
2022-10-01T18:51:23.472Z,100.00
2022-10-01T18:57:09.081Z,100.00
2022-10-01T19:02:20.802Z,100.00
2022-10-01T19:07:59.699Z,100.00
2022-10-01T19:13:11.709Z,100.00
2022-10-01T19:18:26.391Z,100.00
2022-10-01T19:23:58.393Z,100.00
2022-10-01T19:29:11.944Z,100.00
2022-10-01T19:34:24.657Z,100.00
2022-10-01T19:39:29.935Z,100.00
2022-10-01T19:44:45.929Z,100.00
2022-10-01T19:49:55.527Z,100.00
2022-10-01T19:55:00.737Z,100.00
2022-10-01T20:00:11.581Z,100.00
2022-10-01T20:05:18.674Z,100.00
2022-10-01T20:10:43.706Z,100.00
2022-10-01T20:16:07.561Z,100.00
2022-10-01T20:21:42.918Z,100.00
2022-10-01T20:26:47.108Z,100.00
2022-10-01T20:31:54.159Z,100.00
2022-10-01T20:37:14.714Z,100.00
2022-10-01T20:42:24.121Z,100.00
2022-10-01T20:47:36.488Z,100.00
2022-10-01T20:52:47.180Z,100.00
2022-10-01T20:57:54.542Z,100.00
2022-10-01T21:03:11.249Z,100.00
2022-10-01T21:08:42.319Z,100.00
2022-10-01T21:13:53.413Z,100.00
2022-10-01T21:19:06.948Z,100.00
2022-10-01T21:24:31.043Z,100.00
2022-10-01T21:29:57.694Z,100.00
2022-10-01T21:35:25.175Z,100.00
2022-10-01T21:41:01.130Z,100.00
2022-10-01T21:46:27.274Z,100.00
2022-10-01T21:51:38.388Z,100.00
2022-10-01T21:56:50.619Z,100.00
2022-10-01T22:02:04.728Z,100.00
2022-10-01T22:07:28.066Z,100.00
2022-10-01T22:12:32.509Z,100.00
2022-10-01T22:17:34.397Z,100.00
2022-10-01T22:22:38.655Z,100.00
2022-10-01T22:27:47.676Z,100.00
2022-10-01T22:32:55.006Z,100.00
2022-10-01T22:38:02.749Z,100.00
2022-10-01T22:43:11.079Z,100.00
2022-10-01T22:48:17.851Z,100.00
2022-10-01T22:53:54.483Z,100.00
2022-10-01T22:59:19.309Z,100.00
2022-10-01T23:04:39.556Z,100.00
2022-10-01T23:09:53.184Z,100.00
2022-10-01T23:14:57.548Z,100.00
2022-10-01T23:20:29.425Z,100.00
2022-10-01T23:25:50.643Z,100.00
2022-10-01T23:31:04.275Z,100.00
2022-10-01T23:36:30.855Z,100.00
2022-10-01T23:41:47.692Z,100.00
2022-10-01T23:46:51.944Z,100.00
2022-10-01T23:52:13.012Z,100.00
2022-10-01T23:57:21.004Z,100.00
